Accueil
METAR-TAF:

METAR-TAF

Aéroports :

Aéroport de Venise-Marco-Polo

Venise, Italie

latitude: 45-30N, longitude: 012-20E, altitude: 2 m

Observation

Le bulletin a été fait il y a 47 minutes, à 14:20 UTC
Vent 10 kt de sud/sud-est
Température 25°C
Humidité 69%
Pression 1010 hPa
Visibilité 10 km ou plus
Quelques nuages à une hauteur de 2500 ft

METAR: LIPZ 161420Z 15010KT 9999 FEW025 25/19 Q1010 NOSIG

Heure: 17:07 (15:07 UTC)

Prévision

Le bulletin a été fait il y a 4 heures et 7 minutes, à 11:00 UTC
Prévision valable du 16 à 12 UTC au 17 à 18 UTC
Vent 12 kt de sud/sud-est
Visibilité 10 km ou plus
Quelques nuages à une hauteur de 2000 ft
Evoluant progressivement
du 16 à 20 UTC au 16 à 22 UTC
Vent 6 kt de nord/nord-est
Evoluant progressivement
du 17 à 10 UTC au 17 à 12 UTC
Vent 12 kt de sud/sud-est

TAF: LIPZ 161100Z 1612/1718 15012KT 9999 FEW020 BECMG 1620/1622 03006KT BECMG 1710/1712 15012KT

Observations et prévisions météorologiques de plus de 4000 aéroports (messages METAR et TAF).

Les stations disponibles sont représentées par des disques jaunes et rouges sur la carte.

Passer la souris dessus pour voir le nom de la station.

Cliquer dessus pour voir les observations et prévisions météorologiques.

Pour changer de carte: cliquez sur les boutons verts avec une croix noire pour zoomer, sur le bouton vert avec un tiret pour effectuer un zoom arrière, ou sur les flèches vertes pour les cartes adjacentes.


METAR-TAF: